Time;durP1;ratioP1;P1;durP2;ratioP2;P2;SDS_P1;SDS_P2;PMS_P1;PMS_P2;Temp;Humidity;BMP_temperature;BMP_pressure;BME280_temperature;BME280_humidity;BME280_pressure;Samples;Min_cycle;Max_cycle;Signal;HPM_P1;HPM_P2
2021/12/28 00:00:55;;;;;;;26.48;13.80;;;;;;;5.24;100.00;99375.78;5079331;28;20032;-70
2021/12/28 00:03:21;;;;;;;24.98;13.77;;;;;;;5.21;100.00;99370.94;5072926;28;20031;-70
2021/12/28 00:05:46;;;;;;;23.25;12.88;;;;;;;5.25;100.00;99369.69;5055755;28;20040;-70
2021/12/28 00:08:13;;;;;;;25.23;13.07;;;;;;;5.26;100.00;99366.16;5074829;28;20040;-70
2021/12/28 00:10:39;;;;;;;23.90;12.95;;;;;;;5.25;100.00;99371.44;5088008;28;20028;-69
2021/12/28 00:13:05;;;;;;;27.40;13.38;;;;;;;5.27;100.00;99361.81;5084100;28;20043;-69
2021/12/28 00:15:36;;;;;;;24.88;13.13;;;;;;;5.25;100.00;99362.00;5068346;28;20482;-69
2021/12/28 00:18:02;;;;;;;24.05;13.20;;;;;;;5.19;100.00;99354.09;5105808;22;20072;-67
2021/12/28 00:20:30;;;;;;;24.70;12.93;;;;;;;5.14;100.00;99354.56;5064386;28;20032;-67
2021/12/28 00:22:56;;;;;;;22.25;12.48;;;;;;;5.09;100.00;99341.38;5096995;28;20031;-67
2021/12/28 00:25:22;;;;;;;28.40;13.57;;;;;;;5.10;100.00;99342.16;5070461;28;20036;-66
2021/12/28 00:27:48;;;;;;;22.30;12.85;;;;;;;5.01;100.00;99349.88;5073011;28;20502;-67
2021/12/28 00:30:14;;;;;;;23.73;12.43;;;;;;;5.12;100.00;99342.81;5048960;28;20029;-67
2021/12/28 00:32:40;;;;;;;23.95;12.38;;;;;;;5.11;100.00;99347.16;5031960;28;20127;-67
2021/12/28 00:35:06;;;;;;;26.20;12.95;;;;;;;5.13;100.00;99344.44;5032490;28;20056;-67
2021/12/28 00:37:32;;;;;;;22.15;11.98;;;;;;;5.11;100.00;99342.03;5070413;28;20024;-67
2021/12/28 00:39:58;;;;;;;18.55;11.20;;;;;;;5.11;100.00;99341.22;5068346;28;20555;-67
2021/12/28 00:42:23;;;;;;;22.20;12.20;;;;;;;5.14;100.00;99328.88;5053118;28;20662;-66
2021/12/28 00:44:49;;;;;;;22.58;11.50;;;;;;;5.15;100.00;99335.59;5049511;28;20047;-67
2021/12/28 00:47:15;;;;;;;23.20;10.73;;;;;;;5.17;100.00;99333.69;5064921;28;20109;-67
2021/12/28 00:49:41;;;;;;;22.42;12.00;;;;;;;5.15;100.00;99332.22;5045343;28;20044;-67
2021/12/28 00:52:07;;;;;;;17.00;9.75;;;;;;;5.22;100.00;99333.22;5041800;28;20032;-67
2021/12/28 00:54:33;;;;;;;16.90;9.93;;;;;;;5.18;100.00;99327.59;5057265;28;20085;-67
2021/12/28 00:57:01;;;;;;;15.75;9.98;;;;;;;5.14;100.00;99331.44;5050663;28;20031;-67
2021/12/28 00:59:27;;;;;;;19.25;10.10;;;;;;;5.21;100.00;99324.69;5076403;28;20020;-67
2021/12/28 01:01:53;;;;;;;25.20;11.52;;;;;;;5.20;100.00;99320.53;5065523;28;20530;-67
2021/12/28 01:04:19;;;;;;;21.65;11.40;;;;;;;5.16;100.00;99323.56;5050212;28;20154;-67
2021/12/28 01:06:46;;;;;;;21.13;10.77;;;;;;;5.21;100.00;99318.75;5072920;28;20350;-67
2021/12/28 01:09:12;;;;;;;20.88;10.45;;;;;;;5.15;100.00;99325.31;5067488;28;20503;-66
2021/12/28 01:11:37;;;;;;;22.85;11.02;;;;;;;5.22;100.00;99325.50;5068900;28;20275;-66
2021/12/28 01:14:03;;;;;;;18.23;10.85;;;;;;;5.23;100.00;99315.06;5065388;28;20082;-67
2021/12/28 01:16:29;;;;;;;22.45;10.50;;;;;;;5.27;100.00;99310.41;5049989;28;20115;-66
2021/12/28 01:18:55;;;;;;;19.98;10.43;;;;;;;5.23;100.00;99309.91;5071756;28;20111;-67
2021/12/28 01:21:20;;;;;;;21.38;10.75;;;;;;;5.24;100.00;99306.41;5055484;28;20056;-67
2021/12/28 01:23:46;;;;;;;20.40;10.95;;;;;;;5.23;100.00;99315.06;5067997;28;20472;-67
2021/12/28 01:26:12;;;;;;;24.40;10.63;;;;;;;5.21;100.00;99311.03;5065258;28;20036;-66
2021/12/28 01:28:37;;;;;;;22.20;11.50;;;;;;;5.25;100.00;99304.63;5049617;28;20036;-67
2021/12/28 01:31:04;;;;;;;23.08;10.38;;;;;;;5.33;100.00;99296.13;5065553;28;20529;-67
2021/12/28 01:33:30;;;;;;;19.63;10.63;;;;;;;5.39;100.00;99301.44;5067373;28;20025;-66
2021/12/28 01:35:58;;;;;;;23.67;10.48;;;;;;;5.42;100.00;99295.97;5050869;28;20077;-67
2021/12/28 01:38:24;;;;;;;20.02;10.23;;;;;;;5.43;100.00;99299.38;5048288;28;20020;-67
2021/12/28 01:40:50;;;;;;;18.58;9.95;;;;;;;5.47;100.00;99283.44;5064291;28;20032;-67
2021/12/28 01:43:22;;;;;;;20.58;10.57;;;;;;;5.47;100.00;99290.34;5056733;28;20037;-67
2021/12/28 01:46:02;;;;;;;21.23;11.05;;;;;;;5.46;100.00;99294.72;5050173;28;20506;-67
2021/12/28 01:48:34;;;;;;;19.48;10.48;;;;;;;5.40;100.00;99295.31;5042029;28;20048;-67
2021/12/28 01:51:07;;;;;;;24.70;10.73;;;;;;;5.44;100.00;99294.06;5046599;28;20115;-67
2021/12/28 01:53:33;;;;;;;17.17;9.48;;;;;;;5.42;100.00;99288.25;5068652;28;20490;-67
2021/12/28 01:56:05;;;;;;;19.52;10.45;;;;;;;5.52;100.00;99287.28;5050796;28;20040;-67
2021/12/28 01:58:31;;;;;;;21.52;8.45;;;;;;;5.47;100.00;99285.22;5063142;28;20028;-67
2021/12/28 02:00:58;;;;;;;19.67;9.02;;;;;;;5.48;100.00;99281.66;5046713;28;20554;-67
2021/12/28 02:03:26;;;;;;;19.85;9.85;;;;;;;5.49;100.00;99270.44;5050248;28;20067;-67
2021/12/28 02:05:52;;;;;;;16.13;9.57;;;;;;;5.42;100.00;99270.25;5045850;28;20078;-68
2021/12/28 02:08:18;;;;;;;18.38;9.65;;;;;;;5.46;100.00;99265.59;5048560;28;20575;-67
2021/12/28 02:10:46;;;;;;;18.42;8.55;;;;;;;5.54;100.00;99277.66;5045187;28;20110;-67
2021/12/28 02:13:13;;;;;;;24.48;9.52;;;;;;;5.61;100.00;99276.88;5063559;28;20658;-67
2021/12/28 02:15:39;;;;;;;18.42;8.35;;;;;;;5.56;100.00;99270.59;5063012;28;20435;-67
2021/12/28 02:18:06;;;;;;;17.48;8.32;;;;;;;5.59;100.00;99278.00;5063510;28;20075;-67
2021/12/28 02:20:33;;;;;;;16.65;8.13;;;;;;;5.57;100.00;99278.13;5045412;28;20383;-67
2021/12/28 02:22:59;;;;;;;30.27;9.45;;;;;;;5.60;100.00;99275.25;5044738;28;20119;-67
2021/12/28 02:25:25;;;;;;;22.63;8.93;;;;;;;5.70;100.00;99271.72;5046048;28;20625;-66
2021/12/28 02:27:51;;;;;;;25.65;8.57;;;;;;;5.66;100.00;99266.09;5064111;28;20111;-67
2021/12/28 02:30:20;;;;;;;22.23;8.35;;;;;;;5.68;100.00;99264.16;5063909;28;21393;-67
2021/12/28 02:32:48;;;;;;;25.00;8.32;;;;;;;5.73;100.00;99266.25;5044160;28;20036;-67
2021/12/28 02:35:18;;;;;;;21.92;8.77;;;;;;;5.64;100.00;99261.09;5047334;28;20032;-67
2021/12/28 02:37:44;;;;;;;20.25;7.32;;;;;;;5.76;100.00;99253.06;5054383;28;20432;-67
2021/12/28 02:40:14;;;;;;;26.50;8.38;;;;;;;5.81;100.00;99254.19;5049206;28;20025;-67
2021/12/28 02:42:40;;;;;;;22.60;8.77;;;;;;;5.89;100.00;99255.94;5046327;28;20090;-67
2021/12/28 02:45:15;;;;;;;24.10;6.80;;;;;;;5.91;100.00;99246.28;5063953;28;20074;-67
2021/12/28 02:47:43;;;;;;;25.80;6.22;;;;;;;5.99;100.00;99248.91;5064956;28;20025;-67
2021/12/28 02:50:26;;;;;;;29.48;6.30;;;;;;;5.96;100.00;99258.72;5044932;28;20535;-67
2021/12/28 02:52:52;;;;;;;20.42;5.95;;;;;;;5.95;100.00;99249.34;5045373;28;20111;-67
2021/12/28 02:55:21;;;;;;;25.33;6.00;;;;;;;5.91;100.00;99254.00;5047080;28;20230;-67
2021/12/28 02:57:50;;;;;;;20.77;6.07;;;;;;;6.03;100.00;99245.03;5063772;28;20115;-67
2021/12/28 03:00:45;;;;;;;22.75;6.30;;;;;;;6.09;100.00;99246.13;5069004;28;20024;-67
2021/12/28 03:03:17;;;;;;;22.73;6.13;;;;;;;6.06;100.00;99243.09;5062172;28;20046;-67
2021/12/28 03:05:46;;;;;;;29.53;5.47;;;;;;;6.08;100.00;99234.22;5046421;28;20036;-67
2021/12/28 03:08:15;;;;;;;26.60;5.50;;;;;;;6.17;100.00;99240.16;5066787;28;20097;-67
2021/12/28 03:10:43;;;;;;;24.85;6.60;;;;;;;6.18;100.00;99228.91;5068769;28;20033;-67
2021/12/28 03:13:13;;;;;;;27.17;5.78;;;;;;;6.18;100.00;99228.91;5051909;28;20041;-67
2021/12/28 03:15:39;;;;;;;29.63;6.78;;;;;;;6.21;100.00;99226.78;5067687;28;20540;-67
2021/12/28 03:18:04;;;;;;;23.67;5.07;;;;;;;6.23;100.00;99232.59;5068673;28;20040;-67
2021/12/28 03:20:30;;;;;;;33.83;6.78;;;;;;;6.27;100.00;99237.41;5068539;28;20032;-67
2021/12/28 03:22:56;;;;;;;26.15;7.28;;;;;;;6.23;100.00;99232.59;5049324;28;20051;-67
2021/12/28 03:25:22;;;;;;;23.75;7.50;;;;;;;6.33;100.00;99229.00;5044120;28;20029;-67
2021/12/28 03:27:47;;;;;;;25.85;6.30;;;;;;;6.38;100.00;99222.38;5069970;28;20035;-67
2021/12/28 03:30:15;;;;;;;28.02;7.53;;;;;;;6.33;100.00;99224.66;5065839;28;20046;-67
2021/12/28 03:32:42;;;;;;;22.30;5.57;;;;;;;6.41;100.00;99223.84;5067042;28;20047;-67
2021/12/28 03:35:10;;;;;;;23.95;6.75;;;;;;;6.40;100.00;99214.50;5077351;28;20119;-67
2021/12/28 03:37:35;;;;;;;29.08;7.00;;;;;;;6.39;100.00;99211.13;5068733;28;20588;-67
2021/12/28 03:40:06;;;;;;;21.77;6.88;;;;;;;6.38;100.00;99209.50;5048897;28;20029;-67
2021/12/28 03:42:31;;;;;;;30.75;7.63;;;;;;;6.44;100.00;99205.47;5036793;28;20051;-67
2021/12/28 03:44:57;;;;;;;28.55;6.82;;;;;;;6.48;100.00;99203.34;5076286;28;20036;-67
2021/12/28 03:47:23;;;;;;;28.52;6.35;;;;;;;6.49;100.00;99198.03;5054165;28;20039;-67
2021/12/28 03:49:49;;;;;;;27.23;5.68;;;;;;;6.52;100.00;99196.91;5072484;28;20119;-67
2021/12/28 03:52:14;;;;;;;27.35;6.30;;;;;;;6.48;100.00;99191.31;5048074;28;20040;-67
2021/12/28 03:54:40;;;;;;;30.95;6.38;;;;;;;6.42;100.00;99189.38;5054757;28;20032;-67
2021/12/28 03:57:06;;;;;;;37.45;8.13;;;;;;;6.49;100.00;99192.88;5046060;28;20470;-67
2021/12/28 03:59:31;;;;;;;32.67;6.35;;;;;;;6.50;100.00;99196.25;5051926;28;20697;-67
2021/12/28 04:01:57;;;;;;;26.13;6.90;;;;;;;6.50;100.00;99191.09;5034579;28;20036;-67
2021/12/28 04:04:23;;;;;;;27.15;6.35;;;;;;;6.55;100.00;99183.69;5056041;28;20039;-67
2021/12/28 04:06:49;;;;;;;27.25;6.22;;;;;;;6.50;100.00;99186.78;5044429;28;20034;-67
2021/12/28 04:09:21;;;;;;;30.40;7.53;;;;;;;6.52;100.00;99174.53;5076521;28;20663;-68
2021/12/28 04:11:47;;;;;;;33.80;6.70;;;;;;;6.58;100.00;99173.06;5049478;28;20064;-67
2021/12/28 04:14:12;;;;;;;33.22;6.05;;;;;;;6.51;100.00;99169.56;5061247;28;20043;-67
2021/12/28 04:16:38;;;;;;;40.13;7.07;;;;;;;6.54;100.00;99167.44;5050627;28;20128;-67
2021/12/28 04:19:05;;;;;;;19.40;6.10;;;;;;;6.59;100.00;99164.34;5051832;28;20051;-67
2021/12/28 04:21:32;;;;;;;27.63;6.05;;;;;;;6.52;100.00;99161.66;5048845;28;20032;-67
2021/12/28 04:23:58;;;;;;;24.70;6.15;;;;;;;6.52;100.00;99159.09;5050941;28;20474;-67
2021/12/28 04:26:26;;;;;;;40.00;8.27;;;;;;;6.50;100.00;99150.72;5048026;28;20028;-67
2021/12/28 04:28:52;;;;;;;23.00;5.32;;;;;;;6.56;100.00;99144.09;5052112;28;20078;-67
2021/12/28 04:31:17;;;;;;;25.75;6.28;;;;;;;6.45;100.00;99153.00;5050194;28;20032;-67
2021/12/28 04:33:43;;;;;;;28.20;6.47;;;;;;;6.43;100.00;99160.88;5061205;28;20116;-67
2021/12/28 04:36:12;;;;;;;38.03;8.13;;;;;;;6.48;100.00;99151.84;5068546;28;20171;-67
2021/12/28 04:38:39;;;;;;;32.55;6.45;;;;;;;6.56;100.00;99149.25;5045999;28;20033;-67
2021/12/28 04:41:05;;;;;;;28.52;5.68;;;;;;;6.60;100.00;99148.72;5049166;28;20044;-67
2021/12/28 04:43:31;;;;;;;32.20;6.05;;;;;;;6.57;100.00;99146.50;5054965;28;20115;-67
2021/12/28 04:45:57;;;;;;;31.88;5.43;;;;;;;6.61;100.00;99144.38;5050008;28;20111;-67
2021/12/28 04:48:23;;;;;;;33.85;5.03;;;;;;;6.57;100.00;99145.69;5072872;28;20054;-67
2021/12/28 04:50:48;;;;;;;32.30;6.05;;;;;;;6.61;100.00;99146.94;5065425;28;20043;-67
2021/12/28 04:53:14;;;;;;;26.30;5.90;;;;;;;6.65;100.00;99147.41;5051452;28;20040;-67
2021/12/28 04:55:46;;;;;;;25.17;5.07;;;;;;;6.65;100.00;99144.84;5072808;28;20032;-67
2021/12/28 04:58:14;;;;;;;32.88;6.43;;;;;;;6.66;100.00;99134.38;5076089;28;20032;-67
2021/12/28 05:00:41;;;;;;;32.33;5.93;;;;;;;6.69;100.00;99136.59;5066090;28;20457;-67
2021/12/28 05:03:07;;;;;;;37.78;6.18;;;;;;;6.71;100.00;99139.81;5075188;28;20024;-67
2021/12/28 05:05:35;;;;;;;20.88;6.43;;;;;;;6.77;100.00;99139.13;5055839;28;20024;-67
2021/12/28 05:08:03;;;;;;;31.67;7.20;;;;;;;6.86;100.00;99142.47;5064576;28;20024;-67
2021/12/28 05:10:29;;;;;;;34.28;6.13;;;;;;;6.88;100.00;99139.72;5056997;28;20032;-67
2021/12/28 05:12:55;;;;;;;33.30;6.63;;;;;;;6.91;100.00;99139.34;5065044;28;20391;-67
2021/12/28 05:15:21;;;;;;;30.05;7.03;;;;;;;6.89;100.00;99141.31;5070835;28;20041;-67
2021/12/28 05:17:46;;;;;;;34.72;6.75;;;;;;;6.92;100.00;99130.66;5068884;28;20035;-67
2021/12/28 05:20:13;;;;;;;30.88;6.20;;;;;;;6.97;100.00;99131.75;5064873;28;20130;-67
2021/12/28 05:22:39;;;;;;;33.03;7.05;;;;;;;7.04;100.00;99131.84;5056369;28;20140;-67
2021/12/28 05:25:05;;;;;;;26.27;5.43;;;;;;;7.00;100.00;99139.09;5060594;28;20119;-67
2021/12/28 05:27:31;;;;;;;38.33;5.78;;;;;;;6.98;100.00;99135.13;5047590;28;20039;-67
2021/12/28 05:29:56;;;;;;;31.80;6.15;;;;;;;6.98;100.00;99133.31;5065444;28;20024;-67
2021/12/28 05:32:22;;;;;;;30.27;6.05;;;;;;;7.00;100.00;99128.00;5064091;28;20046;-67
2021/12/28 05:34:48;;;;;;;26.85;4.95;;;;;;;6.97;100.00;99126.59;5046551;28;20040;-67
2021/12/28 05:37:14;;;;;;;29.35;5.32;;;;;;;7.06;100.00;99126.50;5063147;28;20108;-67
2021/12/28 05:39:39;;;;;;;30.65;5.55;;;;;;;7.13;100.00;99125.63;5065157;28;20060;-67
2021/12/28 05:42:06;;;;;;;30.98;5.05;;;;;;;7.11;100.00;99119.06;5045696;28;20498;-67
2021/12/28 05:44:32;;;;;;;28.40;5.13;;;;;;;7.14;100.00;99118.69;5064184;28;20036;-68
2021/12/28 05:46:57;;;;;;;27.92;5.45;;;;;;;7.01;100.00;99119.31;5065805;28;20094;-67
2021/12/28 05:49:24;;;;;;;34.65;6.15;;;;;;;7.04;100.00;99118.94;5063900;28;20040;-66
2021/12/28 05:51:50;;;;;;;34.97;6.47;;;;;;;7.10;100.00;99117.44;5063805;28;20040;-67
2021/12/28 05:54:17;;;;;;;25.90;6.72;;;;;;;6.98;100.00;99115.28;5043574;28;20081;-67
2021/12/28 05:56:43;;;;;;;25.38;5.63;;;;;;;7.03;100.00;99117.38;5064890;28;20028;-67
2021/12/28 05:59:09;;;;;;;33.80;5.38;;;;;;;7.11;100.00;99114.72;5046921;28;20032;-67
2021/12/28 06:01:35;;;;;;;31.38;6.18;;;;;;;7.12;100.00;99112.91;5064536;28;20383;-67
2021/12/28 06:04:01;;;;;;;32.38;5.63;;;;;;;7.17;100.00;99106.25;5061903;28;20073;-67
2021/12/28 06:06:27;;;;;;;32.58;7.50;;;;;;;7.19;100.00;99101.72;5049593;28;21593;-67
2021/12/28 06:08:53;;;;;;;36.13;6.07;;;;;;;7.19;100.00;99101.72;5064472;28;20078;-67
2021/12/28 06:11:19;;;;;;;28.80;5.72;;;;;;;7.13;100.00;99101.66;5045971;28;20060;-67
2021/12/28 06:13:45;;;;;;;36.28;5.60;;;;;;;7.09;100.00;99097.81;5050158;28;20136;-67
2021/12/28 06:16:11;;;;;;;29.63;4.90;;;;;;;7.16;100.00;99101.31;5050072;28;20031;-67
2021/12/28 06:18:37;;;;;;;30.63;7.07;;;;;;;7.15;100.00;99103.06;5104234;23;20047;-69
2021/12/28 06:21:04;;;;;;;24.92;6.07;;;;;;;7.17;100.00;99103.69;5117125;27;20030;-69
2021/12/28 06:23:29;;;;;;;34.63;6.85;;;;;;;7.24;100.00;99103.81;5106519;27;20396;-69
2021/12/28 06:25:55;;;;;;;25.27;4.85;;;;;;;7.21;100.00;99096.41;5104416;27;20039;-69
2021/12/28 06:28:21;;;;;;;25.98;4.68;;;;;;;7.16;100.00;99099.53;5111376;27;20107;-69
2021/12/28 06:30:47;;;;;;;34.58;6.88;;;;;;;7.19;100.00;99096.56;5104363;27;20032;-69
2021/12/28 06:33:13;;;;;;;34.10;6.03;;;;;;;7.14;100.00;99100.66;5089348;28;20114;-69
2021/12/28 06:35:39;;;;;;;29.60;6.32;;;;;;;7.16;100.00;99109.84;5106195;27;20023;-69
2021/12/28 06:38:04;;;;;;;31.33;6.57;;;;;;;7.13;100.00;99115.31;5104491;28;20035;-69
2021/12/28 06:40:30;;;;;;;27.15;6.15;;;;;;;7.11;100.00;99109.56;5105004;27;20043;-69
2021/12/28 06:42:56;;;;;;;24.70;6.32;;;;;;;7.06;100.00;99109.25;5104530;27;20062;-69
2021/12/28 06:45:22;;;;;;;38.45;6.05;;;;;;;7.00;100.00;99109.97;5106738;28;21848;-69
2021/12/28 06:47:49;;;;;;;29.60;6.72;;;;;;;7.07;100.00;99105.72;5091300;28;20038;-69
2021/12/28 06:50:15;;;;;;;22.88;6.15;;;;;;;7.13;100.00;99115.31;5085886;28;20040;-70
2021/12/28 06:52:40;;;;;;;21.05;6.32;;;;;;;7.16;100.00;99112.41;5101821;28;20027;-69
2021/12/28 06:55:08;;;;;;;37.65;7.20;;;;;;;7.19;100.00;99106.88;5110744;28;20568;-69
2021/12/28 06:57:33;;;;;;;36.90;6.85;;;;;;;7.16;100.00;99115.00;5106882;28;20051;-69
2021/12/28 07:00:00;;;;;;;31.70;6.57;;;;;;;7.19;100.00;99111.25;5090359;28;20070;-69
2021/12/28 07:02:25;;;;;;;32.92;8.05;;;;;;;7.19;100.00;99106.88;5084457;28;20031;-69
2021/12/28 07:04:52;;;;;;;32.15;6.47;;;;;;;7.24;100.00;99108.97;5112197;28;20660;-69
2021/12/28 07:07:18;;;;;;;30.67;7.45;;;;;;;7.26;100.00;99106.22;5089436;28;20039;-69
2021/12/28 07:09:44;;;;;;;25.77;6.60;;;;;;;7.19;100.00;99103.53;5088167;28;20063;-69
2021/12/28 07:12:12;;;;;;;33.42;8.35;;;;;;;7.12;100.00;99098.28;5091305;28;20577;-69
2021/12/28 07:14:37;;;;;;;31.42;7.78;;;;;;;7.16;100.00;99102.09;5110213;28;20036;-69
2021/12/28 07:17:04;;;;;;;31.67;8.32;;;;;;;7.17;100.00;99098.53;5109129;28;20107;-69
2021/12/28 07:19:29;;;;;;;34.58;9.02;;;;;;;7.25;100.00;99096.88;5106163;28;20031;-69
2021/12/28 07:21:55;;;;;;;29.65;7.75;;;;;;;7.26;100.00;99090.75;5089713;28;20035;-69
2021/12/28 07:24:21;;;;;;;26.23;7.80;;;;;;;7.21;100.00;99071.44;5109318;28;20508;-70
2021/12/28 07:26:47;;;;;;;34.72;8.02;;;;;;;7.11;100.00;99076.03;5104910;28;20122;-69
2021/12/28 07:29:13;;;;;;;33.65;8.00;;;;;;;7.09;100.00;99070.25;5109333;28;20043;-69
2021/12/28 07:31:39;;;;;;;25.48;8.35;;;;;;;7.07;100.00;99067.06;5106858;28;20027;-69
2021/12/28 07:34:05;;;;;;;36.30;8.82;;;;;;;7.09;100.00;99072.84;5109898;28;20050;-69
2021/12/28 07:36:32;;;;;;;31.10;9.02;;;;;;;7.06;100.00;99069.81;5089247;28;20571;-69
2021/12/28 07:38:58;;;;;;;26.13;7.82;;;;;;;6.99;100.00;99080.03;5103116;28;20020;-69
2021/12/28 07:41:24;;;;;;;31.58;9.25;;;;;;;7.00;100.00;99082.41;5087655;28;20043;-68
2021/12/28 07:43:50;;;;;;;32.08;8.40;;;;;;;6.95;100.00;99084.72;5105936;28;20031;-69
2021/12/28 07:46:16;;;;;;;21.85;8.32;;;;;;;6.88;100.00;99095.91;5106145;28;20070;-69
2021/12/28 07:48:42;;;;;;;30.20;9.05;;;;;;;6.77;100.00;99089.38;5105542;28;20055;-69
2021/12/28 07:51:08;;;;;;;34.10;9.55;;;;;;;6.76;100.00;99090.34;5105977;28;20039;-69
2021/12/28 07:53:35;;;;;;;32.45;9.40;;;;;;;6.77;100.00;99094.53;5106574;28;20046;-69
2021/12/28 07:56:02;;;;;;;29.65;8.70;;;;;;;6.78;100.00;99091.78;5089470;28;20070;-69
2021/12/28 07:58:28;;;;;;;47.35;10.00;;;;;;;6.90;100.00;99101.69;5089646;27;20492;-69
2021/12/28 08:00:55;;;;;;;36.33;9.90;;;;;;;6.92;100.00;99108.25;5093264;27;20031;-69
2021/12/28 08:03:22;;;;;;;32.13;11.75;;;;;;;6.93;100.00;99107.28;5092929;28;20488;-69
2021/12/28 08:05:49;;;;;;;34.00;10.18;;;;;;;6.99;100.00;99113.53;5090637;27;20035;-69
2021/12/28 08:08:16;;;;;;;33.58;10.07;;;;;;;6.92;100.00;99113.41;5094759;27;20301;-69
2021/12/28 08:10:42;;;;;;;27.83;9.65;;;;;;;7.02;100.00;99116.53;5113232;27;20042;-69
2021/12/28 08:13:09;;;;;;;25.65;9.57;;;;;;;7.00;100.00;99117.69;5108795;28;20015;-69
2021/12/28 08:15:35;;;;;;;33.63;10.77;;;;;;;7.02;100.00;99116.53;5111671;27;20728;-69
2021/12/28 08:18:03;;;;;;;33.22;9.95;;;;;;;7.07;100.00;99108.31;5110307;27;20091;-68
2021/12/28 08:20:29;;;;;;;43.78;11.23;;;;;;;7.05;100.00;99101.72;5109590;28;20181;-69
2021/12/28 08:22:56;;;;;;;28.90;10.10;;;;;;;7.11;100.00;99099.25;5108631;28;20118;-68
2021/12/28 08:25:23;;;;;;;30.70;10.10;;;;;;;7.13;100.00;99099.88;5109486;28;20032;-68
2021/12/28 08:27:50;;;;;;;30.52;9.95;;;;;;;7.16;100.00;99096.16;5093331;28;20043;-68
2021/12/28 08:30:17;;;;;;;30.90;9.70;;;;;;;7.15;100.00;99100.50;5111099;27;20027;-69
2021/12/28 08:32:43;;;;;;;24.42;9.15;;;;;;;7.16;100.00;99094.38;5123407;27;20035;-68
2021/12/28 08:35:11;;;;;;;34.10;10.15;;;;;;;7.20;100.00;99094.81;5090157;28;20134;-69
2021/12/28 08:37:37;;;;;;;43.58;8.77;;;;;;;7.27;100.00;99092.31;5095700;28;20050;-68
2021/12/28 08:40:04;;;;;;;28.70;8.05;;;;;;;7.21;100.00;99099.00;5073638;28;20409;-69
2021/12/28 08:42:30;;;;;;;17.58;7.28;;;;;;;7.32;100.00;99095.97;5088919;28;20036;-69
2021/12/28 08:44:56;;;;;;;19.40;7.30;;;;;;;7.31;100.00;99096.97;5109163;28;20040;-69
2021/12/28 08:47:26;;;;;;;23.58;7.75;;;;;;;7.28;100.00;99097.31;5107890;28;20039;-69
2021/12/28 08:49:54;;;;;;;29.17;7.07;;;;;;;7.32;100.00;99102.91;5091084;28;20066;-68
2021/12/28 08:52:20;;;;;;;27.70;7.60;;;;;;;7.36;100.00;99099.81;5105218;28;20035;-69
2021/12/28 08:54:46;;;;;;;19.65;6.20;;;;;;;7.33;100.00;99102.75;5107692;28;20160;-69
2021/12/28 08:57:12;;;;;;;23.80;5.95;;;;;;;7.31;100.00;99099.56;5105678;27;20036;-68
2021/12/28 08:59:38;;;;;;;15.80;6.03;;;;;;;7.41;100.00;99097.50;5104771;28;20456;-69
2021/12/28 09:02:03;;;;;;;18.80;5.75;;;;;;;7.40;100.00;99085.59;5085843;28;20154;-68
2021/12/28 09:04:29;;;;;;;16.80;5.80;;;;;;;7.41;100.00;99084.63;5106087;28;20035;-68
2021/12/28 09:06:55;;;;;;;17.90;5.40;;;;;;;7.47;100.00;99083.09;5111174;27;20057;-69
2021/12/28 09:09:20;;;;;;;15.48;6.25;;;;;;;7.45;100.00;99077.31;5084696;28;20032;-69
2021/12/28 09:11:46;;;;;;;18.65;5.45;;;;;;;7.43;100.00;99074.13;5105070;27;20038;-69
2021/12/28 09:14:12;;;;;;;20.80;5.82;;;;;;;7.51;100.00;99073.22;5109351;27;20036;-69
2021/12/28 09:16:38;;;;;;;20.30;4.95;;;;;;;7.56;100.00;99065.78;5111802;27;20058;-69
2021/12/28 09:19:04;;;;;;;14.50;4.85;;;;;;;7.58;100.00;99068.97;5107771;28;20074;-69
2021/12/28 09:21:30;;;;;;;11.30;4.88;;;;;;;7.56;100.00;99070.94;5106507;28;20031;-69
2021/12/28 09:23:56;;;;;;;16.05;4.43;;;;;;;7.59;100.00;99067.97;5107304;28;20170;-69
2021/12/28 09:26:21;;;;;;;15.27;4.38;;;;;;;7.64;100.00;99064.88;5112143;27;20088;-68
2021/12/28 09:28:47;;;;;;;15.90;4.70;;;;;;;7.63;100.00;99066.66;5084975;28;20040;-69
2021/12/28 09:31:14;;;;;;;21.63;5.15;;;;;;;7.60;100.00;99059.28;5110875;27;20426;-69
2021/12/28 09:33:40;;;;;;;13.13;4.63;;;;;;;7.61;100.00;99066.03;5107141;27;20032;-69
2021/12/28 09:36:09;;;;;;;12.00;4.35;;;;;;;7.69;100.00;99058.19;5108887;27;20023;-69
2021/12/28 09:38:35;;;;;;;14.48;5.22;;;;;;;7.73;100.00;99071.53;5110118;27;20047;-69
2021/12/28 09:41:02;;;;;;;17.75;4.50;;;;;;;7.76;100.00;99066.00;5109785;27;20551;-69
2021/12/28 09:43:27;;;;;;;12.93;4.57;;;;;;;7.71;100.00;99068.34;5106069;27;20043;-68
2021/12/28 09:45:53;;;;;;;13.45;4.13;;;;;;;7.76;100.00;99074.56;5105399;28;20039;-69
2021/12/28 09:48:19;;;;;;;14.85;4.00;;;;;;;7.78;100.00;99070.03;5109148;27;20032;-69
2021/12/28 09:50:44;;;;;;;9.70;3.97;;;;;;;7.77;100.00;99065.03;5099042;27;20039;-69
2021/12/28 09:53:14;;;;;;;10.38;3.63;;;;;;;7.80;100.00;99075.81;5094252;27;20127;-69
2021/12/28 09:55:40;;;;;;;7.10;3.60;;;;;;;7.79;100.00;99052.75;5110356;27;20035;-69
2021/12/28 09:58:08;;;;;;;7.35;3.28;;;;;;;7.74;100.00;99058.47;5107296;27;20106;-69
2021/12/28 10:00:33;;;;;;;15.50;3.15;;;;;;;7.90;100.00;99062.63;5107801;27;20034;-69
2021/12/28 10:03:00;;;;;;;11.65;4.18;;;;;;;7.85;100.00;99059.78;5110273;27;20036;-69
2021/12/28 10:05:27;;;;;;;14.10;4.07;;;;;;;7.83;100.00;99056.56;5088118;28;20031;-69
2021/12/28 10:07:57;;;;;;;11.75;3.55;;;;;;;7.89;100.00;99050.72;5089016;28;20512;-69
2021/12/28 10:10:26;;;;;;;9.63;3.80;;;;;;;7.85;100.00;99054.59;5105696;28;20043;-69
2021/12/28 10:12:54;;;;;;;14.05;3.60;;;;;;;7.87;100.00;99042.31;5106909;27;20181;-69
2021/12/28 10:15:24;;;;;;;12.43;3.95;;;;;;;7.94;100.00;99037.25;5088193;28;20039;-69
2021/12/28 10:17:54;;;;;;;10.68;3.67;;;;;;;7.94;100.00;99029.50;5090575;28;20031;-69
2021/12/28 10:20:24;;;;;;;13.27;4.00;;;;;;;7.97;100.00;99022.19;5119323;28;20197;-69
2021/12/28 10:22:53;;;;;;;10.90;4.15;;;;;;;7.96;100.00;99019.78;5093113;28;20024;-69
2021/12/28 10:25:26;;;;;;;10.75;3.10;;;;;;;7.99;100.00;99007.34;5087778;28;20039;-69
2021/12/28 10:27:54;;;;;;;6.97;3.63;;;;;;;7.98;100.00;99004.94;5103659;28;20024;-69
2021/12/28 10:30:24;;;;;;;8.20;3.22;;;;;;;8.02;100.00;99002.78;5092674;28;20472;-69
2021/12/28 10:32:53;;;;;;;9.43;3.00;;;;;;;8.13;100.00;99002.31;5087503;28;20121;-69
2021/12/28 10:35:34;;;;;;;7.80;2.78;;;;;;;8.08;100.00;99005.44;5108927;28;20023;-69
2021/12/28 10:38:06;;;;;;;7.07;2.83;;;;;;;8.21;100.00;98998.78;5099002;28;20366;-69
2021/12/28 10:40:41;;;;;;;5.72;2.65;;;;;;;8.24;100.00;98986.31;5087895;28;20035;-69
2021/12/28 10:43:09;;;;;;;3.40;2.13;;;;;;;8.32;100.00;98985.41;5102729;28;20156;-69
2021/12/28 10:45:47;;;;;;;5.43;2.00;;;;;;;8.41;100.00;98983.50;5103958;28;20059;-69
2021/12/28 10:48:13;;;;;;;8.05;2.10;;;;;;;8.45;100.00;98977.78;5103914;28;20039;-69
2021/12/28 10:51:13;;;;;;;5.80;1.50;;;;;;;8.53;100.00;98966.53;5105279;28;20511;-69
2021/12/28 10:54:06;;;;;;;2.92;1.60;;;;;;;8.58;100.00;98964.97;5100545;28;20100;-69
2021/12/28 10:56:53;;;;;;;9.93;2.60;;;;;;;8.54;100.00;98962.97;5067772;28;20442;-69
2021/12/28 10:59:25;;;;;;;6.38;2.33;;;;;;;8.65;100.00;98951.31;5114221;28;20043;-69
2021/12/28 11:01:51;;;;;;;8.15;1.90;;;;;;;8.69;100.00;98949.97;5104804;28;20040;-69
2021/12/28 11:04:18;;;;;;;2.97;1.73;;;;;;;8.56;100.00;98943.69;5088401;28;20233;-69
2021/12/28 11:06:47;;;;;;;5.03;1.40;;;;;;;8.71;100.00;98947.97;5085232;28;20088;-68
2021/12/28 11:09:17;;;;;;;2.85;1.25;;;;;;;8.71;100.00;98945.41;5105914;28;20038;-69
2021/12/28 11:11:44;;;;;;;6.05;1.23;;;;;;;8.74;100.00;98947.63;5108231;28;20067;-69
2021/12/28 11:14:18;;;;;;;2.42;0.95;;;;;;;8.77;100.00;98929.13;5101664;28;20035;-69
2021/12/28 11:19:29;;;;;;;3.83;0.70;;;;;;;8.90;100.00;98933.59;5101757;27;20686;-68
2021/12/28 11:22:01;;;;;;;1.98;0.70;;;;;;;9.04;100.00;98930.09;5083991;28;20040;-68
2021/12/28 11:24:32;;;;;;;0.87;0.60;;;;;;;9.09;100.00;98930.28;5100721;28;20028;-68
2021/12/28 11:26:59;;;;;;;2.35;0.70;;;;;;;8.99;100.00;98931.66;5093987;28;21056;-68